createdAt,value
2022-08-05T00:02:30.237Z,21.52
2022-08-05T00:06:35.882Z,21.51
2022-08-05T00:10:40.051Z,21.57
2022-08-05T00:14:42.795Z,21.30
2022-08-05T00:18:48.227Z,21.14
2022-08-05T00:22:57.450Z,21.23
2022-08-05T00:27:10.513Z,21.07
2022-08-05T00:31:53.458Z,21.17
2022-08-05T00:35:48.009Z,21.10
2022-08-05T00:40:06.111Z,21.21
2022-08-05T00:44:13.498Z,21.25
2022-08-05T00:48:17.650Z,21.13
2022-08-05T00:52:31.009Z,21.13
2022-08-05T00:56:33.561Z,21.11
2022-08-05T01:00:37.534Z,21.11
2022-08-05T01:04:42.188Z,21.09
2022-08-05T01:08:46.374Z,21.18
2022-08-05T01:13:05.080Z,21.15
2022-08-05T01:17:25.368Z,21.20
2022-08-05T01:21:50.652Z,21.14
2022-08-05T01:26:08.272Z,21.10
2022-08-05T01:30:18.851Z,20.95
2022-08-05T01:34:27.125Z,20.84
2022-08-05T01:38:31.479Z,20.89
2022-08-05T01:42:35.625Z,20.86
2022-08-05T01:46:42.467Z,20.93
2022-08-05T01:50:50.940Z,20.85
2022-08-05T01:54:58.177Z,20.90
2022-08-05T01:59:07.310Z,20.92
2022-08-05T02:03:24.256Z,21.08
2022-08-05T02:07:35.487Z,21.08
2022-08-05T02:11:48.032Z,21.06
2022-08-05T02:15:59.930Z,20.86
2022-08-05T02:20:07.602Z,20.64
2022-08-05T02:24:17.948Z,20.46
2022-08-05T02:28:29.010Z,20.34
2022-08-05T02:32:35.947Z,20.22
2022-08-05T02:36:50.049Z,20.20
2022-08-05T02:40:54.349Z,20.25
2022-08-05T02:44:58.663Z,20.36
2022-08-05T02:49:01.265Z,20.40
2022-08-05T02:53:06.651Z,20.31
2022-08-05T02:58:10.567Z,20.25
2022-08-05T03:01:41.211Z,20.36
2022-08-05T03:06:54.183Z,20.33
2022-08-05T03:10:11.033Z,20.34
2022-08-05T03:14:15.943Z,20.28
2022-08-05T03:18:29.863Z,20.29
2022-08-05T03:22:32.858Z,20.09
2022-08-05T03:26:38.243Z,20.09
2022-08-05T03:30:42.466Z,20.11
2022-08-05T03:34:50.643Z,20.09
2022-08-05T03:38:54.031Z,19.99
2022-08-05T03:42:57.888Z,20.09
2022-08-05T03:47:00.636Z,20.07
2022-08-05T03:52:36.467Z,19.98
2022-08-05T03:56:05.119Z,19.97
2022-08-05T04:00:08.688Z,19.90
2022-08-05T04:04:17.036Z,20.18
2022-08-05T04:08:35.197Z,20.21
2022-08-05T04:16:42.683Z,20.21
2022-08-05T04:20:45.243Z,20.15
2022-08-05T04:24:53.010Z,20.16
2022-08-05T04:28:55.696Z,20.08
2022-08-05T04:33:00.531Z,20.08
2022-08-05T04:37:04.835Z,19.98
2022-08-05T04:41:10.033Z,20.06
2022-08-05T04:45:14.136Z,19.99
2022-08-05T04:49:38.426Z,20.04
2022-08-05T04:53:49.705Z,20.12
2022-08-05T04:57:54.198Z,20.10
2022-08-05T05:02:35.272Z,20.18
2022-08-05T05:06:38.686Z,20.09
2022-08-05T05:10:47.297Z,20.25
2022-08-05T05:14:58.720Z,20.62
2022-08-05T05:19:18.845Z,20.90
2022-08-05T05:23:23.431Z,20.94
2022-08-05T05:27:41.323Z,20.86
2022-08-05T05:31:46.178Z,20.59
2022-08-05T05:35:49.511Z,20.94
2022-08-05T05:39:53.436Z,20.61
2022-08-05T05:44:00.503Z,20.61
2022-08-05T05:48:08.088Z,20.41
2022-08-05T05:52:20.211Z,20.34
2022-08-05T05:56:34.773Z,20.63
2022-08-05T06:00:37.575Z,21.06
2022-08-05T06:04:41.413Z,21.78
2022-08-05T06:08:49.120Z,22.18
2022-08-05T06:12:53.309Z,21.81
2022-08-05T06:16:55.824Z,21.86
2022-08-05T06:21:00.356Z,21.81
2022-08-05T06:25:24.504Z,21.80
2022-08-05T06:29:46.609Z,21.93
2022-08-05T06:34:08.045Z,21.96
2022-08-05T06:38:12.023Z,22.00
2022-08-05T06:42:16.461Z,21.87
2022-08-05T06:46:22.076Z,21.96
2022-08-05T06:50:32.493Z,22.23
2022-08-05T06:54:35.966Z,22.63
2022-08-05T06:58:38.857Z,22.25
2022-08-05T07:02:47.031Z,22.66
2022-08-05T07:06:56.398Z,23.25
2022-08-05T07:11:00.760Z,23.38
2022-08-05T07:15:34.640Z,23.28
2022-08-05T07:24:11.257Z,22.89
2022-08-05T07:28:17.258Z,23.72
2022-08-05T07:32:26.079Z,23.77
2022-08-05T07:36:30.911Z,24.41
2022-08-05T07:40:33.519Z,24.74
2022-08-05T07:44:38.135Z,25.38
2022-08-05T07:49:02.270Z,25.23
2022-08-05T07:53:06.705Z,25.46
2022-08-05T07:57:17.678Z,24.89
2022-08-05T08:01:32.143Z,24.79
2022-08-05T08:05:39.833Z,25.46
2022-08-05T08:09:44.580Z,25.77
2022-08-05T08:13:49.606Z,25.97
2022-08-05T08:18:08.155Z,25.85
2022-08-05T08:22:16.814Z,26.21
2022-08-05T08:26:26.851Z,26.72
2022-08-05T08:30:40.858Z,26.65
2022-08-05T08:34:50.472Z,25.99
2022-08-05T08:38:55.318Z,25.31
2022-08-05T08:44:57.860Z,25.03
2022-08-05T08:48:05.436Z,25.03
2022-08-05T08:52:02.982Z,24.96
2022-08-05T08:56:08.403Z,25.18
2022-08-05T09:00:13.342Z,25.52
2022-08-05T09:04:18.884Z,25.64
2022-08-05T09:08:26.703Z,25.86
2022-08-05T09:12:30.306Z,25.95
2022-08-05T09:16:34.513Z,26.24
2022-08-05T09:20:38.308Z,26.26
2022-08-05T09:24:41.020Z,26.02
2022-08-05T09:28:43.800Z,26.03
2022-08-05T09:32:47.819Z,26.16
2022-08-05T09:36:54.821Z,26.43
2022-08-05T09:41:06.692Z,26.87
2022-08-05T09:45:17.676Z,27.11
2022-08-05T09:49:40.432Z,26.88
2022-08-05T09:53:59.195Z,27.08
2022-08-05T09:58:11.897Z,27.20
2022-08-05T10:02:14.438Z,27.55
2022-08-05T10:06:24.421Z,27.77
2022-08-05T10:10:32.575Z,28.35
2022-08-05T10:14:35.247Z,28.54
2022-08-05T10:18:39.262Z,28.91
2022-08-05T10:22:48.763Z,29.00
2022-08-05T10:27:00.231Z,29.14
2022-08-05T10:32:59.382Z,29.04
2022-08-05T10:35:33.814Z,28.42
2022-08-05T10:39:58.931Z,28.13
2022-08-05T10:44:10.560Z,28.68
2022-08-05T10:48:38.366Z,28.87
2022-08-05T10:52:58.717Z,29.49
2022-08-05T10:57:02.875Z,30.22
2022-08-05T11:01:07.041Z,30.06
2022-08-05T11:05:11.123Z,29.28
2022-08-05T11:09:24.491Z,28.76
2022-08-05T11:13:54.987Z,28.57
2022-08-05T11:18:09.909Z,28.12
2022-08-05T11:22:42.176Z,26.13
2022-08-05T11:26:49.785Z,25.59
2022-08-05T11:31:58.166Z,24.77
2022-08-05T11:36:04.433Z,24.44
2022-08-05T11:40:11.439Z,23.43
2022-08-05T11:44:40.954Z,22.77
2022-08-05T11:48:45.886Z,22.73
2022-08-05T11:52:49.692Z,22.05
2022-08-05T11:56:55.596Z,21.24
2022-08-05T12:01:06.619Z,20.54
2022-08-05T12:05:32.263Z,20.13
2022-08-05T12:09:53.678Z,19.43
2022-08-05T12:13:58.603Z,19.16
2022-08-05T12:18:04.274Z,18.88
2022-08-05T12:22:17.977Z,18.88
2022-08-05T12:26:23.190Z,18.78
2022-08-05T12:30:32.068Z,18.78
2022-08-05T12:34:36.937Z,18.88
2022-08-05T12:38:41.724Z,18.93
2022-08-05T12:42:44.613Z,18.66
2022-08-05T12:46:54.268Z,18.24
2022-08-05T12:52:10.224Z,18.27
2022-08-05T12:55:35.306Z,18.38
2022-08-05T13:00:08.247Z,18.35
2022-08-05T13:04:09.624Z,18.53
2022-08-05T13:08:12.785Z,18.87
2022-08-05T13:12:23.487Z,19.03
2022-08-05T13:16:31.241Z,19.17
2022-08-05T13:20:40.211Z,19.18
2022-08-05T13:24:57.520Z,19.07
2022-08-05T13:29:01.781Z,19.29
2022-08-05T13:33:04.884Z,19.11
2022-08-05T13:37:07.431Z,19.16
2022-08-05T13:41:10.301Z,19.50
2022-08-05T13:45:14.191Z,19.62
2022-08-05T13:49:24.060Z,19.68
2022-08-05T13:53:26.576Z,19.76
2022-08-05T13:57:50.652Z,19.82
2022-08-05T14:01:58.775Z,19.86
2022-08-05T14:06:25.161Z,20.00
2022-08-05T14:10:28.710Z,19.77
2022-08-05T14:14:33.800Z,19.33
2022-08-05T14:18:37.981Z,19.41
2022-08-05T14:22:40.672Z,19.10
2022-08-05T14:27:15.724Z,18.76
2022-08-05T14:31:17.489Z,18.71
2022-08-05T14:35:51.343Z,19.33
2022-08-05T14:39:56.766Z,19.73
2022-08-05T14:44:09.455Z,20.22
2022-08-05T14:48:32.643Z,20.40
2022-08-05T14:52:52.474Z,20.54
2022-08-05T14:56:56.381Z,20.45
2022-08-05T15:01:00.256Z,20.42
2022-08-05T15:05:08.516Z,20.88
2022-08-05T15:09:50.561Z,20.91
2022-08-05T15:13:46.410Z,20.31
2022-08-05T15:17:52.733Z,20.58
2022-08-05T15:21:58.002Z,20.24
2022-08-05T15:26:04.225Z,20.30
2022-08-05T15:30:07.956Z,20.09
2022-08-05T15:34:31.506Z,19.98
2022-08-05T15:38:40.900Z,20.28
2022-08-05T15:42:54.260Z,20.37
2022-08-05T15:47:01.934Z,20.67
2022-08-05T15:51:05.914Z,20.71
2022-08-05T15:55:15.538Z,20.69
2022-08-05T15:59:22.302Z,20.71
2022-08-05T16:03:26.828Z,20.87
2022-08-05T16:07:29.778Z,20.74
2022-08-05T16:11:40.179Z,20.90
2022-08-05T16:15:47.406Z,21.05
2022-08-05T16:20:03.285Z,20.93
2022-08-05T16:24:12.727Z,21.55
2022-08-05T16:28:15.708Z,22.08
2022-08-05T16:32:23.335Z,22.71
2022-08-05T16:36:31.880Z,22.48
2022-08-05T16:40:34.464Z,22.33
2022-08-05T16:44:37.594Z,22.73
2022-08-05T16:48:41.644Z,22.14
2022-08-05T16:52:46.071Z,22.67
2022-08-05T16:56:52.246Z,22.60
2022-08-05T17:00:55.094Z,22.36
2022-08-05T17:04:58.992Z,23.07
2022-08-05T17:09:01.564Z,23.01
2022-08-05T17:13:04.567Z,22.96
2022-08-05T17:17:14.491Z,22.64
2022-08-05T17:21:23.498Z,21.94
2022-08-05T17:25:39.304Z,21.48
2022-08-05T17:29:43.043Z,21.50
2022-08-05T17:33:48.575Z,21.63
2022-08-05T17:38:00.634Z,22.01
2022-08-05T17:42:18.348Z,22.62
2022-08-05T17:46:23.698Z,23.44
2022-08-05T17:50:30.462Z,23.50
2022-08-05T17:54:35.505Z,23.54
2022-08-05T17:58:39.499Z,24.10
2022-08-05T18:02:42.087Z,24.03
2022-08-05T18:06:45.805Z,23.55
2022-08-05T18:10:49.825Z,22.96
2022-08-05T18:14:52.442Z,22.46
2022-08-05T18:18:54.987Z,21.71
2022-08-05T18:23:00.704Z,21.36
2022-08-05T18:27:18.751Z,20.93
2022-08-05T18:31:23.433Z,20.82
2022-08-05T18:35:28.276Z,20.79
2022-08-05T18:41:53.730Z,20.35
2022-08-05T18:44:13.333Z,20.00
2022-08-05T18:48:17.546Z,19.76
2022-08-05T18:52:33.561Z,19.67
2022-08-05T18:56:38.366Z,19.60
2022-08-05T19:00:42.289Z,19.36
2022-08-05T19:05:01.227Z,19.14
2022-08-05T19:09:05.832Z,19.05
2022-08-05T19:13:12.335Z,18.89
2022-08-05T19:17:19.786Z,18.69
2022-08-05T19:21:27.360Z,18.54
2022-08-05T19:25:39.248Z,18.44
2022-08-05T19:29:46.759Z,18.36
2022-08-05T19:33:56.664Z,18.35
2022-08-05T19:38:06.123Z,18.24
2022-08-05T19:42:09.641Z,18.17
2022-08-05T19:46:30.011Z,18.03
2022-08-05T19:50:34.933Z,17.91
2022-08-05T19:54:37.495Z,17.82
2022-08-05T19:58:53.403Z,17.74
2022-08-05T20:02:57.213Z,17.48
2022-08-05T20:07:02.696Z,17.39
2022-08-05T20:11:05.223Z,17.29
2022-08-05T20:15:09.416Z,17.18
2022-08-05T20:19:11.963Z,17.12
2022-08-05T20:23:18.342Z,17.06
2022-08-05T20:27:26.916Z,16.99
2022-08-05T20:31:42.086Z,16.84
2022-08-05T20:35:52.701Z,16.78
2022-08-05T20:39:58.285Z,16.69
2022-08-05T20:44:17.641Z,16.54
2022-08-05T20:48:23.998Z,16.40
2022-08-05T20:52:27.575Z,16.30
2022-08-05T20:56:35.424Z,16.13
2022-08-05T21:00:54.520Z,15.95
2022-08-05T21:04:57.562Z,15.83
2022-08-05T21:09:05.566Z,15.69
2022-08-05T21:13:15.905Z,15.58
2022-08-05T21:17:28.905Z,15.51
2022-08-05T21:21:44.216Z,15.36
2022-08-05T21:25:55.291Z,15.11
2022-08-05T21:30:01.963Z,14.92
2022-08-05T21:34:04.721Z,14.75
2022-08-05T21:38:10.192Z,14.70
2022-08-05T21:42:30.648Z,14.66
2022-08-05T21:46:39.553Z,14.60
2022-08-05T21:50:42.412Z,14.52
2022-08-05T21:54:57.650Z,14.47
2022-08-05T21:59:24.242Z,14.42
2022-08-05T22:03:52.446Z,14.31
2022-08-05T22:08:02.026Z,14.17
2022-08-05T22:12:10.700Z,14.02
2022-08-05T22:16:39.489Z,13.86
2022-08-05T22:20:38.940Z,13.81
2022-08-05T22:24:59.914Z,13.70
2022-08-05T22:29:02.719Z,13.64
2022-08-05T22:33:15.564Z,13.59
2022-08-05T22:37:19.937Z,13.57
2022-08-05T22:41:26.262Z,13.50
2022-08-05T22:45:46.076Z,13.34
2022-08-05T22:50:20.849Z,13.10
2022-08-05T22:54:13.558Z,12.74
2022-08-05T22:58:16.567Z,12.65
2022-08-05T23:02:31.072Z,12.62
2022-08-05T23:06:33.779Z,12.53
2022-08-05T23:10:38.066Z,12.43
2022-08-05T23:14:43.799Z,12.30
2022-08-05T23:18:46.429Z,12.07
2022-08-05T23:22:55.615Z,12.04
2022-08-05T23:27:00.639Z,12.06
2022-08-05T23:31:16.036Z,11.96
2022-08-05T23:35:20.348Z,11.91
2022-08-05T23:39:32.495Z,11.73
2022-08-05T23:44:03.561Z,11.76
2022-08-05T23:48:09.676Z,11.76
2022-08-05T23:52:29.057Z,11.67
2022-08-05T23:56:33.410Z,11.65
